Corona Del Mar, California
Current Conditions -  °F | °C
As of 5:53 AM on Saturday 20 Dec 2014 (Local Time) from KSNA Reporting Station
Clear Clear  
Wind Chill: 53°   Ceiling: Unl
Heat Index: 53°   Visibility: 10mi
Dew Point: 46°   Wind: 3mph
Humidity: 77%   Direction: 30°NNE
Pressure: 30.14"   Gusts: NA
Location:  33.6°N, 117.87°W
Report Text: KSNA 201353Z 03003KT 10SM CLR 12/08 A3014 RMK AO2 SLP206 T01170078
Loading
Personal Weather Stations






























Interactive Weather Map New forecast layout! Learn more

10-Day Weather Forecast

Advertisements
Track Severe Weather on mobile